createdAt,value
2023-03-22T00:01:41.707Z,5.27
2023-03-22T00:04:02.906Z,4.80
2023-03-22T00:06:24.721Z,5.00
2023-03-22T00:08:46.155Z,5.33
2023-03-22T00:11:07.877Z,5.10
2023-03-22T00:13:29.069Z,5.23
2023-03-22T00:15:50.324Z,5.20
2023-03-22T00:18:14.458Z,5.50
2023-03-22T00:20:37.872Z,5.40
2023-03-22T00:22:59.407Z,5.67
2023-03-22T00:25:20.769Z,5.83
2023-03-22T00:27:42.107Z,5.90
2023-03-22T00:30:03.938Z,5.87
2023-03-22T00:32:25.322Z,5.67
2023-03-22T00:34:48.270Z,6.00
2023-03-22T00:37:09.406Z,6.37
2023-03-22T00:39:30.505Z,5.97
2023-03-22T00:41:52.346Z,6.27
2023-03-22T00:44:14.024Z,5.90
2023-03-22T00:46:35.134Z,6.00
2023-03-22T00:48:56.717Z,6.47
2023-03-22T00:51:19.218Z,5.73
2023-03-22T00:53:43.043Z,6.43
2023-03-22T00:56:05.017Z,6.23
2023-03-22T00:58:26.125Z,6.57
2023-03-22T01:00:47.557Z,5.97
2023-03-22T01:03:09.762Z,5.70
2023-03-22T01:05:33.254Z,6.13
2023-03-22T01:07:56.948Z,5.83
2023-03-22T01:10:18.709Z,6.40
2023-03-22T01:12:39.917Z,6.23
2023-03-22T01:15:01.247Z,6.50
2023-03-22T01:17:22.537Z,6.50
2023-03-22T01:19:43.921Z,6.33
2023-03-22T01:22:06.016Z,7.10
2023-03-22T01:24:29.033Z,6.60
2023-03-22T01:26:50.026Z,6.60
2023-03-22T01:29:11.391Z,6.80
2023-03-22T01:31:32.863Z,6.87
2023-03-22T01:33:54.708Z,6.63
2023-03-22T01:36:15.854Z,7.40
2023-03-22T01:38:37.132Z,6.87
2023-03-22T01:40:59.814Z,7.30
2023-03-22T01:43:20.923Z,7.60
2023-03-22T01:45:43.683Z,7.07
2023-03-22T01:48:07.774Z,7.40
2023-03-22T01:50:29.170Z,7.27
2023-03-22T01:52:50.995Z,7.00
2023-03-22T01:55:13.208Z,6.60
2023-03-22T01:57:37.601Z,6.90
2023-03-22T01:59:59.027Z,7.07
2023-03-22T02:02:20.395Z,6.53
2023-03-22T02:04:42.020Z,6.97
2023-03-22T02:07:09.501Z,6.60
2023-03-22T02:09:30.800Z,6.83
2023-03-22T02:11:57.656Z,6.43
2023-03-22T02:14:28.583Z,6.90
2023-03-22T02:16:58.073Z,6.90
2023-03-22T02:19:42.726Z,7.57
2023-03-22T02:22:12.014Z,7.37
2023-03-22T02:24:48.368Z,7.40
2023-03-22T02:27:24.451Z,6.43
2023-03-22T02:29:48.500Z,7.13
2023-03-22T02:32:24.470Z,7.07
2023-03-22T02:35:03.568Z,7.33
2023-03-22T02:37:48.449Z,7.60
2023-03-22T02:40:13.202Z,7.10
2023-03-22T02:42:40.567Z,7.40
2023-03-22T02:45:03.412Z,6.73
2023-03-22T02:47:25.436Z,6.23
2023-03-22T02:49:50.105Z,6.33
2023-03-22T02:52:17.352Z,6.40
2023-03-22T02:54:44.482Z,6.87
2023-03-22T02:57:10.113Z,5.93
2023-03-22T02:59:32.477Z,6.87
2023-03-22T03:01:55.929Z,6.57
2023-03-22T03:04:18.949Z,6.83
2023-03-22T03:06:46.217Z,6.80
2023-03-22T03:09:08.217Z,6.87
2023-03-22T03:11:29.522Z,6.70
2023-03-22T03:13:52.886Z,6.57
2023-03-22T03:16:17.657Z,7.83
2023-03-22T03:18:45.270Z,7.10
2023-03-22T03:21:11.946Z,6.87
2023-03-22T03:23:39.942Z,7.23
2023-03-22T03:26:04.718Z,6.90
2023-03-22T03:28:30.091Z,6.70
2023-03-22T03:30:54.947Z,6.80
2023-03-22T03:33:17.743Z,6.80
2023-03-22T03:35:42.159Z,7.10
2023-03-22T03:38:07.965Z,6.83
2023-03-22T03:40:30.956Z,7.00
2023-03-22T03:42:54.551Z,7.40
2023-03-22T03:45:16.469Z,6.87
2023-03-22T03:47:39.153Z,7.43
2023-03-22T03:50:00.366Z,7.23
2023-03-22T03:52:24.453Z,7.40
2023-03-22T03:54:46.218Z,7.37
2023-03-22T03:57:07.320Z,8.00
2023-03-22T03:59:28.682Z,8.10
2023-03-22T04:01:52.512Z,8.30
2023-03-22T04:04:15.433Z,7.93
2023-03-22T04:06:39.540Z,8.17
2023-03-22T04:09:01.786Z,8.07
2023-03-22T04:11:23.248Z,8.53
2023-03-22T04:13:44.313Z,7.93
2023-03-22T04:16:06.117Z,7.37
2023-03-22T04:18:29.614Z,7.73
2023-03-22T04:20:53.469Z,7.30
2023-03-22T04:23:14.779Z,8.43
2023-03-22T04:25:37.901Z,7.90
2023-03-22T04:28:00.817Z,7.80
2023-03-22T04:30:22.833Z,7.07
2023-03-22T04:32:44.374Z,7.80
2023-03-22T04:35:06.090Z,8.50
2023-03-22T04:37:28.488Z,8.27
2023-03-22T04:39:49.824Z,8.30
2023-03-22T04:42:11.206Z,7.60
2023-03-22T04:44:32.539Z,8.03
2023-03-22T04:46:53.544Z,7.47
2023-03-22T04:49:15.062Z,7.50
2023-03-22T04:51:36.009Z,8.23
2023-03-22T04:53:58.593Z,7.83
2023-03-22T04:56:19.671Z,8.47
2023-03-22T04:58:42.048Z,8.63
2023-03-22T05:01:04.166Z,8.93
2023-03-22T05:03:25.280Z,8.40
2023-03-22T05:05:51.518Z,8.70
2023-03-22T05:08:14.324Z,8.67
2023-03-22T05:10:40.092Z,8.90
2023-03-22T05:13:01.351Z,8.77
2023-03-22T05:15:22.560Z,9.13
2023-03-22T05:17:44.023Z,9.83
2023-03-22T05:20:10.317Z,9.57
2023-03-22T05:22:34.456Z,8.73
2023-03-22T05:24:55.467Z,8.40
2023-03-22T05:27:18.200Z,8.97
2023-03-22T05:29:45.024Z,8.57
2023-03-22T05:32:06.858Z,8.50
2023-03-22T05:34:35.398Z,9.40
2023-03-22T05:36:56.294Z,9.37
2023-03-22T05:39:17.389Z,8.73
2023-03-22T05:41:38.805Z,9.43
2023-03-22T05:44:01.556Z,9.67
2023-03-22T05:46:22.834Z,9.57
2023-03-22T05:48:44.093Z,9.47
2023-03-22T05:51:07.268Z,9.60
2023-03-22T05:53:28.090Z,8.93
2023-03-22T05:55:49.713Z,9.73
2023-03-22T05:58:11.054Z,9.57
2023-03-22T06:00:33.624Z,9.80
2023-03-22T06:02:56.481Z,10.23
2023-03-22T06:05:18.327Z,9.33
2023-03-22T06:07:39.498Z,9.33
2023-03-22T06:10:00.380Z,9.37
2023-03-22T06:12:24.651Z,8.83
2023-03-22T06:14:46.045Z,9.80
2023-03-22T06:17:09.599Z,9.50
2023-03-22T06:19:31.289Z,9.83
2023-03-22T06:21:52.872Z,11.93
2023-03-22T06:24:14.032Z,11.03
2023-03-22T06:26:35.278Z,10.77
2023-03-22T06:28:56.503Z,9.77
2023-03-22T06:31:17.644Z,10.77
2023-03-22T06:33:40.022Z,10.40
2023-03-22T06:36:01.965Z,10.43
2023-03-22T06:38:22.967Z,11.30
2023-03-22T06:40:44.456Z,10.23
2023-03-22T06:43:07.207Z,9.77
2023-03-22T06:45:33.224Z,10.20
2023-03-22T06:47:54.469Z,9.70
2023-03-22T06:50:17.226Z,9.50
2023-03-22T06:52:38.865Z,9.13
2023-03-22T06:54:59.834Z,9.07
2023-03-22T06:57:21.176Z,8.73
2023-03-22T06:59:42.459Z,8.77
2023-03-22T07:02:03.956Z,9.17
2023-03-22T07:04:25.805Z,8.90
2023-03-22T07:06:48.814Z,9.20
2023-03-22T07:09:10.386Z,8.97
2023-03-22T07:11:31.814Z,8.73
2023-03-22T07:13:53.791Z,9.17
2023-03-22T07:16:15.126Z,9.03
2023-03-22T07:18:36.970Z,8.60
2023-03-22T07:20:58.215Z,8.83
2023-03-22T07:23:20.866Z,9.10
2023-03-22T07:25:42.079Z,8.83
2023-03-22T07:28:03.113Z,8.53
2023-03-22T07:30:24.292Z,9.07
2023-03-22T07:32:45.590Z,8.20
2023-03-22T07:35:07.060Z,8.10
2023-03-22T07:37:28.328Z,7.83
2023-03-22T07:39:50.830Z,8.33
2023-03-22T07:42:12.119Z,8.40
2023-03-22T07:44:33.355Z,7.67
2023-03-22T07:46:54.641Z,7.27
2023-03-22T07:49:15.981Z,7.27
2023-03-22T07:51:37.152Z,6.23
2023-03-22T07:53:58.485Z,6.67
2023-03-22T07:56:21.116Z,6.70
2023-03-22T07:58:42.237Z,6.63
2023-03-22T08:01:04.780Z,6.40
2023-03-22T08:03:25.702Z,6.90
2023-03-22T08:05:47.748Z,6.57
2023-03-22T08:08:08.811Z,6.57
2023-03-22T08:10:31.732Z,6.30
2023-03-22T08:12:54.049Z,6.10
2023-03-22T08:15:15.276Z,6.33
2023-03-22T08:17:36.651Z,6.33
2023-03-22T08:19:57.598Z,6.03
2023-03-22T08:22:18.849Z,6.40
2023-03-22T08:24:40.266Z,5.77
2023-03-22T08:27:01.483Z,6.67
2023-03-22T08:29:24.370Z,5.87
2023-03-22T08:31:45.650Z,4.10
2023-03-22T08:34:06.798Z,4.00
2023-03-22T08:36:29.060Z,4.20
2023-03-22T08:38:50.375Z,3.30
2023-03-22T08:41:11.929Z,3.80
2023-03-22T08:43:32.974Z,3.63
2023-03-22T08:45:55.608Z,3.57
2023-03-22T08:48:16.767Z,3.73
2023-03-22T08:50:37.966Z,3.20
2023-03-22T08:53:00.577Z,2.63
2023-03-22T08:55:22.202Z,2.50
2023-03-22T08:57:44.515Z,2.40
2023-03-22T09:00:06.691Z,2.30
2023-03-22T09:02:29.380Z,2.70
2023-03-22T09:04:50.793Z,2.70
2023-03-22T09:07:12.541Z,2.70
2023-03-22T09:09:33.901Z,2.70
2023-03-22T09:11:55.997Z,2.33
2023-03-22T09:14:17.217Z,2.23
2023-03-22T09:16:38.658Z,2.40
2023-03-22T09:19:01.558Z,2.40
2023-03-22T09:21:23.079Z,2.40
2023-03-22T09:23:47.694Z,2.07
2023-03-22T09:26:09.921Z,2.17
2023-03-22T09:28:31.500Z,2.07
2023-03-22T09:30:52.910Z,1.80
2023-03-22T09:33:14.055Z,1.50
2023-03-22T09:35:36.781Z,1.73
2023-03-22T09:37:58.847Z,1.30
2023-03-22T09:40:20.587Z,1.40
2023-03-22T09:42:43.474Z,1.20
2023-03-22T09:45:05.386Z,1.43
2023-03-22T09:47:43.966Z,1.53
2023-03-22T09:50:09.573Z,1.30
2023-03-22T09:52:32.105Z,1.20
2023-03-22T09:54:53.499Z,1.40
2023-03-22T09:57:21.467Z,1.30
2023-03-22T09:59:45.453Z,1.30
2023-03-22T10:02:14.539Z,1.40
2023-03-22T10:04:42.064Z,1.47
2023-03-22T10:07:08.220Z,1.50
2023-03-22T10:09:33.657Z,1.40
2023-03-22T10:11:56.995Z,1.40
2023-03-22T10:14:30.917Z,1.30
2023-03-22T10:16:54.700Z,1.50
2023-03-22T10:19:19.845Z,1.50
2023-03-22T10:21:41.763Z,1.50
2023-03-22T10:24:05.251Z,1.40
2023-03-22T10:26:30.322Z,1.53
2023-03-22T10:28:56.206Z,1.50
2023-03-22T10:31:21.180Z,1.50
2023-03-22T10:33:50.247Z,1.40
2023-03-22T10:36:14.494Z,2.03
2023-03-22T10:38:38.546Z,1.60
2023-03-22T10:41:00.454Z,1.67
2023-03-22T10:43:24.634Z,1.50
2023-03-22T10:45:46.032Z,1.50
2023-03-22T10:48:08.354Z,1.40
2023-03-22T10:50:31.584Z,1.20
2023-03-22T10:52:56.673Z,1.10
2023-03-22T10:55:18.270Z,1.70
2023-03-22T10:57:42.956Z,1.30
2023-03-22T11:00:09.802Z,1.53
2023-03-22T11:02:33.050Z,1.20
2023-03-22T11:04:56.338Z,1.30
2023-03-22T11:07:28.222Z,1.17
2023-03-22T11:09:49.762Z,1.23
2023-03-22T11:12:14.093Z,1.30
2023-03-22T11:14:36.830Z,1.40
2023-03-22T11:17:00.524Z,1.40
2023-03-22T11:19:25.876Z,1.23
2023-03-22T11:21:47.129Z,1.50
2023-03-22T11:24:09.024Z,1.50
2023-03-22T11:26:34.681Z,1.40
2023-03-22T11:29:03.182Z,1.27
2023-03-22T11:31:25.911Z,1.40
2023-03-22T11:33:56.738Z,1.40
2023-03-22T11:36:18.909Z,1.40
2023-03-22T11:38:41.152Z,1.10
2023-03-22T11:41:03.489Z,1.20
2023-03-22T11:43:27.264Z,1.53
2023-03-22T11:45:50.438Z,1.23
2023-03-22T11:48:15.844Z,1.30
2023-03-22T11:50:40.655Z,1.23
2023-03-22T11:53:02.859Z,1.30
2023-03-22T11:55:25.060Z,1.10
2023-03-22T11:57:46.311Z,1.10
2023-03-22T12:00:11.761Z,1.30
2023-03-22T12:02:35.725Z,1.20
2023-03-22T12:05:01.819Z,1.00
2023-03-22T12:07:26.214Z,1.10
2023-03-22T12:09:50.534Z,1.20
2023-03-22T12:12:15.972Z,1.07
2023-03-22T12:14:41.387Z,1.20
2023-03-22T12:17:05.998Z,1.20
2023-03-22T12:19:35.025Z,1.20
2023-03-22T12:21:56.198Z,1.20
2023-03-22T12:24:26.316Z,1.17
2023-03-22T12:26:47.528Z,1.27
2023-03-22T12:29:13.973Z,1.20
2023-03-22T12:31:37.446Z,1.30
2023-03-22T12:33:59.734Z,1.20
2023-03-22T12:36:22.615Z,1.27
2023-03-22T12:38:48.335Z,1.27
2023-03-22T12:41:13.051Z,1.30
2023-03-22T12:43:39.815Z,1.47
2023-03-22T12:46:03.025Z,1.33
2023-03-22T12:48:31.471Z,1.27
2023-03-22T12:50:54.361Z,1.10
2023-03-22T12:53:17.299Z,1.20
2023-03-22T12:55:39.990Z,1.20
2023-03-22T12:58:03.413Z,1.30
2023-03-22T13:00:28.622Z,1.20
2023-03-22T13:02:52.665Z,1.50
2023-03-22T13:05:14.389Z,1.40
2023-03-22T13:07:41.228Z,1.53
2023-03-22T13:10:22.103Z,1.30
2023-03-22T13:13:03.457Z,2.30
2023-03-22T13:15:41.223Z,1.50
2023-03-22T13:18:03.310Z,1.20
2023-03-22T13:20:27.811Z,1.30
2023-03-22T13:23:04.098Z,1.40
2023-03-22T13:25:29.779Z,1.53
2023-03-22T13:27:52.515Z,1.20
2023-03-22T13:30:16.614Z,1.20
2023-03-22T13:32:39.601Z,1.30
2023-03-22T13:35:01.506Z,1.00
2023-03-22T13:37:25.304Z,1.30
2023-03-22T13:39:51.892Z,1.20
2023-03-22T13:42:19.176Z,1.10
2023-03-22T13:44:42.932Z,1.20
2023-03-22T13:47:04.462Z,1.20
2023-03-22T13:49:50.099Z,1.33
2023-03-22T13:52:22.777Z,1.10
2023-03-22T13:54:45.135Z,1.37
2023-03-22T13:57:15.929Z,1.10
2023-03-22T14:00:03.136Z,1.40
2023-03-22T14:02:35.812Z,1.20
2023-03-22T14:04:58.229Z,1.10
2023-03-22T14:07:23.600Z,1.10
2023-03-22T14:09:46.502Z,1.10
2023-03-22T14:12:10.398Z,1.20
2023-03-22T14:14:33.634Z,1.20
2023-03-22T14:16:59.556Z,1.20
2023-03-22T14:19:23.166Z,1.07
2023-03-22T14:21:47.804Z,1.30
